sensor_id;sensor_type;location;lat;lon;timestamp;P1;durP1;ratioP1;P2;durP2;ratioP2
49237;SDS011;35069;47.906;1.892;2023-02-15T00:00:53;35.13;;;22.00;;
49237;SDS011;35069;47.906;1.892;2023-02-15T00:03:21;40.35;;;22.58;;
49237;SDS011;35069;47.906;1.892;2023-02-15T00:05:47;44.55;;;23.77;;
49237;SDS011;35069;47.906;1.892;2023-02-15T00:08:13;37.17;;;23.85;;
49237;SDS011;35069;47.906;1.892;2023-02-15T00:10:38;37.58;;;22.00;;
49237;SDS011;35069;47.906;1.892;2023-02-15T00:13:04;38.38;;;22.30;;
49237;SDS011;35069;47.906;1.892;2023-02-15T00:15:29;41.70;;;24.10;;
49237;SDS011;35069;47.906;1.892;2023-02-15T00:17:56;45.25;;;25.02;;
49237;SDS011;35069;47.906;1.892;2023-02-15T00:20:22;37.08;;;22.63;;
49237;SDS011;35069;47.906;1.892;2023-02-15T00:22:47;38.45;;;22.73;;
49237;SDS011;35069;47.906;1.892;2023-02-15T00:25:13;38.42;;;23.65;;
49237;SDS011;35069;47.906;1.892;2023-02-15T00:27:38;36.72;;;23.27;;
49237;SDS011;35069;47.906;1.892;2023-02-15T00:30:04;44.28;;;24.45;;
49237;SDS011;35069;47.906;1.892;2023-02-15T00:32:30;41.45;;;25.05;;
49237;SDS011;35069;47.906;1.892;2023-02-15T00:34:56;43.50;;;24.63;;
49237;SDS011;35069;47.906;1.892;2023-02-15T00:37:22;42.10;;;24.48;;
49237;SDS011;35069;47.906;1.892;2023-02-15T00:39:48;46.95;;;24.63;;
49237;SDS011;35069;47.906;1.892;2023-02-15T00:42:13;46.60;;;24.17;;
49237;SDS011;35069;47.906;1.892;2023-02-15T00:44:39;38.72;;;24.17;;
49237;SDS011;35069;47.906;1.892;2023-02-15T00:47:04;44.90;;;23.65;;
49237;SDS011;35069;47.906;1.892;2023-02-15T00:49:30;40.97;;;23.48;;
49237;SDS011;35069;47.906;1.892;2023-02-15T00:51:55;40.15;;;23.52;;
49237;SDS011;35069;47.906;1.892;2023-02-15T00:54:21;40.85;;;24.27;;
49237;SDS011;35069;47.906;1.892;2023-02-15T00:56:46;37.70;;;22.30;;
49237;SDS011;35069;47.906;1.892;2023-02-15T00:59:12;38.10;;;23.70;;
49237;SDS011;35069;47.906;1.892;2023-02-15T01:01:38;38.13;;;23.33;;
49237;SDS011;35069;47.906;1.892;2023-02-15T01:04:03;44.53;;;23.67;;
49237;SDS011;35069;47.906;1.892;2023-02-15T01:06:29;41.17;;;23.00;;
49237;SDS011;35069;47.906;1.892;2023-02-15T01:08:55;33.40;;;22.45;;
49237;SDS011;35069;47.906;1.892;2023-02-15T01:11:21;42.55;;;25.27;;
49237;SDS011;35069;47.906;1.892;2023-02-15T01:13:48;44.92;;;26.75;;
49237;SDS011;35069;47.906;1.892;2023-02-15T01:16:18;37.58;;;22.58;;
49237;SDS011;35069;47.906;1.892;2023-02-15T01:18:44;38.50;;;22.38;;
49237;SDS011;35069;47.906;1.892;2023-02-15T01:21:11;39.67;;;22.80;;
49237;SDS011;35069;47.906;1.892;2023-02-15T01:23:38;36.20;;;23.13;;
49237;SDS011;35069;47.906;1.892;2023-02-15T01:26:04;46.40;;;25.27;;
49237;SDS011;35069;47.906;1.892;2023-02-15T01:28:30;43.55;;;25.55;;
49237;SDS011;35069;47.906;1.892;2023-02-15T01:30:56;38.88;;;24.92;;
49237;SDS011;35069;47.906;1.892;2023-02-15T01:33:22;44.55;;;26.85;;
49237;SDS011;35069;47.906;1.892;2023-02-15T01:35:47;44.97;;;26.33;;
49237;SDS011;35069;47.906;1.892;2023-02-15T01:38:13;43.97;;;25.77;;
49237;SDS011;35069;47.906;1.892;2023-02-15T01:40:39;45.92;;;26.23;;
49237;SDS011;35069;47.906;1.892;2023-02-15T01:43:09;42.70;;;24.23;;
49237;SDS011;35069;47.906;1.892;2023-02-15T01:45:36;45.78;;;25.30;;
49237;SDS011;35069;47.906;1.892;2023-02-15T01:48:08;41.63;;;24.52;;
49237;SDS011;35069;47.906;1.892;2023-02-15T01:50:47;46.42;;;25.63;;
49237;SDS011;35069;47.906;1.892;2023-02-15T01:53:21;47.42;;;26.33;;
49237;SDS011;35069;47.906;1.892;2023-02-15T01:56:10;50.30;;;27.50;;
49237;SDS011;35069;47.906;1.892;2023-02-15T02:01:08;45.25;;;25.63;;
49237;SDS011;35069;47.906;1.892;2023-02-15T02:06:18;47.88;;;28.92;;
49237;SDS011;35069;47.906;1.892;2023-02-15T02:08:45;50.55;;;27.27;;
49237;SDS011;35069;47.906;1.892;2023-02-15T02:11:12;49.22;;;28.60;;
49237;SDS011;35069;47.906;1.892;2023-02-15T02:13:39;45.05;;;27.90;;
49237;SDS011;35069;47.906;1.892;2023-02-15T02:24:08;57.08;;;33.10;;
49237;SDS011;35069;47.906;1.892;2023-02-15T02:40:36;48.65;;;27.73;;
49237;SDS011;35069;47.906;1.892;2023-02-15T02:46:16;48.33;;;27.77;;
49237;SDS011;35069;47.906;1.892;2023-02-15T02:48:45;49.57;;;27.83;;
49237;SDS011;35069;47.906;1.892;2023-02-15T02:51:13;46.63;;;29.10;;
49237;SDS011;35069;47.906;1.892;2023-02-15T02:53:45;55.63;;;32.00;;
49237;SDS011;35069;47.906;1.892;2023-02-15T02:56:18;49.58;;;30.10;;
49237;SDS011;35069;47.906;1.892;2023-02-15T02:58:59;48.92;;;30.15;;
49237;SDS011;35069;47.906;1.892;2023-02-15T03:04:12;51.38;;;29.40;;
49237;SDS011;35069;47.906;1.892;2023-02-15T03:06:46;48.97;;;28.20;;
49237;SDS011;35069;47.906;1.892;2023-02-15T03:09:29;51.45;;;29.75;;
49237;SDS011;35069;47.906;1.892;2023-02-15T03:12:11;45.63;;;29.23;;
49237;SDS011;35069;47.906;1.892;2023-02-15T03:14:55;49.55;;;28.13;;
49237;SDS011;35069;47.906;1.892;2023-02-15T03:17:29;49.75;;;30.13;;
49237;SDS011;35069;47.906;1.892;2023-02-15T03:19:59;45.50;;;27.55;;
49237;SDS011;35069;47.906;1.892;2023-02-15T03:22:41;51.75;;;28.73;;
49237;SDS011;35069;47.906;1.892;2023-02-15T03:25:17;49.47;;;27.77;;
49237;SDS011;35069;47.906;1.892;2023-02-15T03:27:49;52.00;;;28.98;;
49237;SDS011;35069;47.906;1.892;2023-02-15T03:30:20;49.55;;;28.92;;
49237;SDS011;35069;47.906;1.892;2023-02-15T03:32:47;54.10;;;30.73;;
49237;SDS011;35069;47.906;1.892;2023-02-15T03:35:14;52.40;;;30.40;;
49237;SDS011;35069;47.906;1.892;2023-02-15T03:43:14;50.53;;;28.77;;
49237;SDS011;35069;47.906;1.892;2023-02-15T03:45:47;54.13;;;29.55;;
49237;SDS011;35069;47.906;1.892;2023-02-15T03:48:28;49.47;;;29.73;;
49237;SDS011;35069;47.906;1.892;2023-02-15T03:51:03;50.23;;;30.93;;
49237;SDS011;35069;47.906;1.892;2023-02-15T03:53:51;49.88;;;29.50;;
49237;SDS011;35069;47.906;1.892;2023-02-15T03:56:18;49.67;;;30.38;;
49237;SDS011;35069;47.906;1.892;2023-02-15T03:58:44;52.10;;;31.15;;
49237;SDS011;35069;47.906;1.892;2023-02-15T04:01:40;55.63;;;32.53;;
49237;SDS011;35069;47.906;1.892;2023-02-15T04:04:32;51.42;;;31.45;;
49237;SDS011;35069;47.906;1.892;2023-02-15T04:07:00;54.67;;;31.45;;
49237;SDS011;35069;47.906;1.892;2023-02-15T04:09:26;53.90;;;31.65;;
49237;SDS011;35069;47.906;1.892;2023-02-15T04:12:10;54.88;;;31.50;;
49237;SDS011;35069;47.906;1.892;2023-02-15T04:14:36;53.60;;;30.55;;
49237;SDS011;35069;47.906;1.892;2023-02-15T04:17:20;54.45;;;32.42;;
49237;SDS011;35069;47.906;1.892;2023-02-15T04:19:46;53.08;;;31.60;;
49237;SDS011;35069;47.906;1.892;2023-02-15T04:22:30;53.67;;;31.17;;
49237;SDS011;35069;47.906;1.892;2023-02-15T04:25:14;53.72;;;31.27;;
49237;SDS011;35069;47.906;1.892;2023-02-15T04:27:58;50.20;;;30.73;;
49237;SDS011;35069;47.906;1.892;2023-02-15T04:30:24;50.45;;;30.45;;
49237;SDS011;35069;47.906;1.892;2023-02-15T04:32:51;53.47;;;31.23;;
49237;SDS011;35069;47.906;1.892;2023-02-15T04:35:18;50.47;;;29.77;;
49237;SDS011;35069;47.906;1.892;2023-02-15T04:37:43;49.47;;;29.92;;
49237;SDS011;35069;47.906;1.892;2023-02-15T04:40:10;51.20;;;30.10;;
49237;SDS011;35069;47.906;1.892;2023-02-15T04:42:37;46.55;;;29.40;;
49237;SDS011;35069;47.906;1.892;2023-02-15T04:45:03;56.60;;;29.73;;
49237;SDS011;35069;47.906;1.892;2023-02-15T04:47:29;55.50;;;31.27;;
49237;SDS011;35069;47.906;1.892;2023-02-15T04:49:55;47.25;;;27.55;;
49237;SDS011;35069;47.906;1.892;2023-02-15T04:52:21;49.22;;;30.27;;
49237;SDS011;35069;47.906;1.892;2023-02-15T04:54:46;47.97;;;28.25;;
49237;SDS011;35069;47.906;1.892;2023-02-15T04:57:12;44.38;;;26.58;;
49237;SDS011;35069;47.906;1.892;2023-02-15T04:59:38;56.90;;;30.38;;
49237;SDS011;35069;47.906;1.892;2023-02-15T05:02:03;45.30;;;28.67;;
49237;SDS011;35069;47.906;1.892;2023-02-15T05:04:29;47.35;;;27.65;;
49237;SDS011;35069;47.906;1.892;2023-02-15T05:06:55;47.50;;;27.02;;
49237;SDS011;35069;47.906;1.892;2023-02-15T05:09:21;44.55;;;28.63;;
49237;SDS011;35069;47.906;1.892;2023-02-15T05:11:46;45.72;;;27.33;;
49237;SDS011;35069;47.906;1.892;2023-02-15T05:14:12;45.58;;;26.95;;
49237;SDS011;35069;47.906;1.892;2023-02-15T05:16:38;42.38;;;25.48;;
49237;SDS011;35069;47.906;1.892;2023-02-15T05:19:03;50.03;;;28.60;;
49237;SDS011;35069;47.906;1.892;2023-02-15T05:21:29;44.47;;;27.58;;
49237;SDS011;35069;47.906;1.892;2023-02-15T05:23:56;44.08;;;26.70;;
49237;SDS011;35069;47.906;1.892;2023-02-15T05:26:23;47.28;;;29.33;;
49237;SDS011;35069;47.906;1.892;2023-02-15T05:29:08;48.97;;;29.10;;
49237;SDS011;35069;47.906;1.892;2023-02-15T05:31:36;52.08;;;28.23;;
49237;SDS011;35069;47.906;1.892;2023-02-15T05:34:02;51.20;;;28.08;;
49237;SDS011;35069;47.906;1.892;2023-02-15T05:36:27;48.13;;;27.40;;
49237;SDS011;35069;47.906;1.892;2023-02-15T05:38:53;56.47;;;30.90;;
49237;SDS011;35069;47.906;1.892;2023-02-15T05:41:19;49.25;;;27.60;;
49237;SDS011;35069;47.906;1.892;2023-02-15T05:43:45;46.95;;;26.00;;
49237;SDS011;35069;47.906;1.892;2023-02-15T05:46:10;53.85;;;26.58;;
49237;SDS011;35069;47.906;1.892;2023-02-15T05:48:37;52.60;;;28.42;;
49237;SDS011;35069;47.906;1.892;2023-02-15T05:51:07;43.08;;;25.65;;
49237;SDS011;35069;47.906;1.892;2023-02-15T05:53:35;48.00;;;25.57;;
49237;SDS011;35069;47.906;1.892;2023-02-15T05:56:03;47.78;;;25.48;;
49237;SDS011;35069;47.906;1.892;2023-02-15T05:58:31;41.03;;;23.77;;
49237;SDS011;35069;47.906;1.892;2023-02-15T06:00:58;39.30;;;22.65;;
49237;SDS011;35069;47.906;1.892;2023-02-15T06:03:24;42.20;;;25.00;;
49237;SDS011;35069;47.906;1.892;2023-02-15T06:05:50;40.67;;;24.95;;
49237;SDS011;35069;47.906;1.892;2023-02-15T06:08:17;43.15;;;24.08;;
49237;SDS011;35069;47.906;1.892;2023-02-15T06:10:43;41.45;;;24.38;;
49237;SDS011;35069;47.906;1.892;2023-02-15T06:13:10;36.00;;;22.13;;
49237;SDS011;35069;47.906;1.892;2023-02-15T06:15:36;38.17;;;23.05;;
49237;SDS011;35069;47.906;1.892;2023-02-15T06:18:01;42.58;;;24.08;;
49237;SDS011;35069;47.906;1.892;2023-02-15T06:20:27;41.88;;;24.05;;
49237;SDS011;35069;47.906;1.892;2023-02-15T06:22:52;43.42;;;26.50;;
49237;SDS011;35069;47.906;1.892;2023-02-15T06:25:18;52.65;;;29.20;;
49237;SDS011;35069;47.906;1.892;2023-02-15T06:27:44;48.30;;;29.02;;
49237;SDS011;35069;47.906;1.892;2023-02-15T06:30:10;46.42;;;25.45;;
49237;SDS011;35069;47.906;1.892;2023-02-15T06:32:36;42.60;;;24.08;;
49237;SDS011;35069;47.906;1.892;2023-02-15T06:35:02;47.38;;;26.70;;
49237;SDS011;35069;47.906;1.892;2023-02-15T06:37:28;45.83;;;28.13;;
49237;SDS011;35069;47.906;1.892;2023-02-15T06:39:53;41.20;;;26.30;;
49237;SDS011;35069;47.906;1.892;2023-02-15T06:42:19;40.35;;;24.58;;
49237;SDS011;35069;47.906;1.892;2023-02-15T06:44:45;47.28;;;24.70;;
49237;SDS011;35069;47.906;1.892;2023-02-15T06:47:11;45.28;;;24.50;;
49237;SDS011;35069;47.906;1.892;2023-02-15T06:49:36;43.35;;;25.30;;
49237;SDS011;35069;47.906;1.892;2023-02-15T06:52:03;44.22;;;24.92;;
49237;SDS011;35069;47.906;1.892;2023-02-15T06:54:28;41.65;;;24.85;;
49237;SDS011;35069;47.906;1.892;2023-02-15T06:56:54;42.67;;;24.38;;
49237;SDS011;35069;47.906;1.892;2023-02-15T06:59:20;43.47;;;25.20;;
49237;SDS011;35069;47.906;1.892;2023-02-15T07:01:46;44.30;;;24.10;;
49237;SDS011;35069;47.906;1.892;2023-02-15T07:04:11;38.25;;;23.88;;
49237;SDS011;35069;47.906;1.892;2023-02-15T07:06:37;39.83;;;23.13;;
49237;SDS011;35069;47.906;1.892;2023-02-15T07:09:03;46.25;;;26.20;;
49237;SDS011;35069;47.906;1.892;2023-02-15T07:11:30;54.88;;;25.15;;
49237;SDS011;35069;47.906;1.892;2023-02-15T07:14:14;45.78;;;25.92;;
49237;SDS011;35069;47.906;1.892;2023-02-15T07:16:40;40.47;;;23.77;;
49237;SDS011;35069;47.906;1.892;2023-02-15T07:19:06;44.58;;;25.42;;
49237;SDS011;35069;47.906;1.892;2023-02-15T07:21:32;43.05;;;25.10;;
49237;SDS011;35069;47.906;1.892;2023-02-15T07:23:58;39.55;;;22.90;;
49237;SDS011;35069;47.906;1.892;2023-02-15T07:26:24;41.78;;;22.42;;
49237;SDS011;35069;47.906;1.892;2023-02-15T07:28:50;36.35;;;22.88;;
49237;SDS011;35069;47.906;1.892;2023-02-15T07:31:15;41.80;;;23.45;;
49237;SDS011;35069;47.906;1.892;2023-02-15T07:33:41;43.03;;;23.88;;
49237;SDS011;35069;47.906;1.892;2023-02-15T07:36:07;38.97;;;23.20;;
49237;SDS011;35069;47.906;1.892;2023-02-15T07:38:39;37.80;;;23.05;;
49237;SDS011;35069;47.906;1.892;2023-02-15T07:41:06;47.05;;;27.02;;
49237;SDS011;35069;47.906;1.892;2023-02-15T07:43:35;41.33;;;22.33;;
49237;SDS011;35069;47.906;1.892;2023-02-15T07:46:02;35.60;;;23.10;;
49237;SDS011;35069;47.906;1.892;2023-02-15T07:48:30;31.67;;;20.33;;
49237;SDS011;35069;47.906;1.892;2023-02-15T07:50:59;35.50;;;20.83;;
49237;SDS011;35069;47.906;1.892;2023-02-15T07:53:26;32.60;;;19.25;;
49237;SDS011;35069;47.906;1.892;2023-02-15T07:55:51;34.80;;;19.85;;
49237;SDS011;35069;47.906;1.892;2023-02-15T07:58:17;34.60;;;20.73;;
49237;SDS011;35069;47.906;1.892;2023-02-15T08:00:43;36.05;;;20.52;;
49237;SDS011;35069;47.906;1.892;2023-02-15T08:03:24;34.17;;;19.90;;
49237;SDS011;35069;47.906;1.892;2023-02-15T08:05:57;40.78;;;20.73;;
49237;SDS011;35069;47.906;1.892;2023-02-15T08:08:23;36.25;;;20.33;;
49237;SDS011;35069;47.906;1.892;2023-02-15T08:11:05;35.85;;;20.88;;
49237;SDS011;35069;47.906;1.892;2023-02-15T08:14:01;33.90;;;19.98;;
49237;SDS011;35069;47.906;1.892;2023-02-15T08:17:02;35.38;;;21.23;;
49237;SDS011;35069;47.906;1.892;2023-02-15T08:19:25;35.40;;;21.13;;
49237;SDS011;35069;47.906;1.892;2023-02-15T08:21:53;33.25;;;20.67;;
49237;SDS011;35069;47.906;1.892;2023-02-15T08:24:28;32.10;;;19.70;;
49237;SDS011;35069;47.906;1.892;2023-02-15T08:26:54;36.25;;;21.30;;
49237;SDS011;35069;47.906;1.892;2023-02-15T08:29:21;32.72;;;19.88;;
49237;SDS011;35069;47.906;1.892;2023-02-15T08:31:49;36.10;;;21.55;;
49237;SDS011;35069;47.906;1.892;2023-02-15T08:34:18;33.28;;;20.08;;
49237;SDS011;35069;47.906;1.892;2023-02-15T08:36:44;34.03;;;20.38;;
49237;SDS011;35069;47.906;1.892;2023-02-15T08:39:11;33.95;;;19.52;;
49237;SDS011;35069;47.906;1.892;2023-02-15T08:41:37;31.10;;;20.48;;
49237;SDS011;35069;47.906;1.892;2023-02-15T08:44:05;32.90;;;19.92;;
49237;SDS011;35069;47.906;1.892;2023-02-15T08:46:32;33.17;;;19.90;;
49237;SDS011;35069;47.906;1.892;2023-02-15T08:49:03;34.00;;;20.52;;
49237;SDS011;35069;47.906;1.892;2023-02-15T08:51:30;38.17;;;21.20;;
49237;SDS011;35069;47.906;1.892;2023-02-15T08:53:58;35.13;;;21.38;;
49237;SDS011;35069;47.906;1.892;2023-02-15T08:56:27;35.47;;;18.95;;
49237;SDS011;35069;47.906;1.892;2023-02-15T08:58:54;31.23;;;17.77;;
49237;SDS011;35069;47.906;1.892;2023-02-15T09:01:23;27.70;;;18.05;;
49237;SDS011;35069;47.906;1.892;2023-02-15T09:03:51;34.33;;;19.25;;
49237;SDS011;35069;47.906;1.892;2023-02-15T09:06:21;31.85;;;19.42;;
49237;SDS011;35069;47.906;1.892;2023-02-15T09:08:48;34.45;;;19.75;;
49237;SDS011;35069;47.906;1.892;2023-02-15T09:11:16;32.38;;;20.27;;
49237;SDS011;35069;47.906;1.892;2023-02-15T09:13:47;31.45;;;19.88;;
49237;SDS011;35069;47.906;1.892;2023-02-15T09:16:14;30.10;;;19.05;;
49237;SDS011;35069;47.906;1.892;2023-02-15T09:18:41;32.78;;;18.60;;
49237;SDS011;35069;47.906;1.892;2023-02-15T09:21:09;32.20;;;21.02;;
49237;SDS011;35069;47.906;1.892;2023-02-15T09:23:38;30.23;;;19.05;;
49237;SDS011;35069;47.906;1.892;2023-02-15T09:26:12;30.55;;;20.88;;
49237;SDS011;35069;47.906;1.892;2023-02-15T09:28:40;34.58;;;21.10;;
49237;SDS011;35069;47.906;1.892;2023-02-15T09:31:13;34.28;;;20.52;;
49237;SDS011;35069;47.906;1.892;2023-02-15T09:33:41;33.40;;;19.48;;
49237;SDS011;35069;47.906;1.892;2023-02-15T09:38:42;35.00;;;21.73;;
49237;SDS011;35069;47.906;1.892;2023-02-15T09:55:11;33.05;;;21.13;;
49237;SDS011;35069;47.906;1.892;2023-02-15T09:57:45;32.08;;;19.60;;
49237;SDS011;35069;47.906;1.892;2023-02-15T10:00:38;33.97;;;20.33;;
49237;SDS011;35069;47.906;1.892;2023-02-15T10:03:15;33.10;;;18.38;;
49237;SDS011;35069;47.906;1.892;2023-02-15T10:06:07;31.92;;;20.23;;
49237;SDS011;35069;47.906;1.892;2023-02-15T10:14:14;26.75;;;17.65;;
49237;SDS011;35069;47.906;1.892;2023-02-15T10:28:00;25.80;;;17.92;;
49237;SDS011;35069;47.906;1.892;2023-02-15T10:33:16;31.60;;;19.48;;
49237;SDS011;35069;47.906;1.892;2023-02-15T10:41:46;29.92;;;16.92;;
49237;SDS011;35069;47.906;1.892;2023-02-15T10:44:43;25.80;;;16.02;;
49237;SDS011;35069;47.906;1.892;2023-02-15T11:01:02;24.52;;;16.13;;
49237;SDS011;35069;47.906;1.892;2023-02-15T11:04:07;25.90;;;16.25;;
49237;SDS011;35069;47.906;1.892;2023-02-15T11:06:54;22.40;;;15.20;;
49237;SDS011;35069;47.906;1.892;2023-02-15T11:09:24;19.90;;;14.35;;
49237;SDS011;35069;47.906;1.892;2023-02-15T11:11:54;24.95;;;14.80;;
49237;SDS011;35069;47.906;1.892;2023-02-15T11:14:58;19.50;;;14.88;;
49237;SDS011;35069;47.906;1.892;2023-02-15T11:20:18;22.83;;;14.10;;
49237;SDS011;35069;47.906;1.892;2023-02-15T11:22:50;21.58;;;14.15;;
49237;SDS011;35069;47.906;1.892;2023-02-15T11:25:19;21.85;;;15.55;;
49237;SDS011;35069;47.906;1.892;2023-02-15T11:27:49;24.90;;;15.50;;
49237;SDS011;35069;47.906;1.892;2023-02-15T11:30:20;22.90;;;14.20;;
49237;SDS011;35069;47.906;1.892;2023-02-15T11:32:52;23.15;;;16.90;;
49237;SDS011;35069;47.906;1.892;2023-02-15T11:38:42;25.13;;;15.93;;
49237;SDS011;35069;47.906;1.892;2023-02-15T11:46:05;21.88;;;15.63;;
49237;SDS011;35069;47.906;1.892;2023-02-15T11:48:32;20.05;;;14.73;;
49237;SDS011;35069;47.906;1.892;2023-02-15T11:50:58;20.05;;;14.82;;
49237;SDS011;35069;47.906;1.892;2023-02-15T11:53:26;18.25;;;13.02;;
49237;SDS011;35069;47.906;1.892;2023-02-15T11:55:56;23.27;;;14.32;;
49237;SDS011;35069;47.906;1.892;2023-02-15T12:03:59;20.48;;;12.27;;
49237;SDS011;35069;47.906;1.892;2023-02-15T12:06:49;16.60;;;10.85;;
49237;SDS011;35069;47.906;1.892;2023-02-15T12:12:19;18.65;;;11.07;;
49237;SDS011;35069;47.906;1.892;2023-02-15T12:15:05;12.93;;;9.48;;
49237;SDS011;35069;47.906;1.892;2023-02-15T12:20:31;11.57;;;9.55;;
49237;SDS011;35069;47.906;1.892;2023-02-15T12:22:59;11.93;;;7.95;;
49237;SDS011;35069;47.906;1.892;2023-02-15T12:25:41;12.30;;;9.52;;
49237;SDS011;35069;47.906;1.892;2023-02-15T12:28:21;12.98;;;8.82;;
49237;SDS011;35069;47.906;1.892;2023-02-15T12:30:59;11.85;;;9.10;;
49237;SDS011;35069;47.906;1.892;2023-02-15T12:33:35;13.13;;;8.13;;
49237;SDS011;35069;47.906;1.892;2023-02-15T12:36:10;11.85;;;7.68;;
49237;SDS011;35069;47.906;1.892;2023-02-15T12:38:43;13.25;;;9.15;;
49237;SDS011;35069;47.906;1.892;2023-02-15T12:41:32;11.30;;;8.43;;
49237;SDS011;35069;47.906;1.892;2023-02-15T12:46:56;11.27;;;9.35;;
49237;SDS011;35069;47.906;1.892;2023-02-15T12:49:33;11.80;;;8.48;;
49237;SDS011;35069;47.906;1.892;2023-02-15T12:52:01;12.35;;;9.85;;
49237;SDS011;35069;47.906;1.892;2023-02-15T12:57:12;13.02;;;8.93;;
49237;SDS011;35069;47.906;1.892;2023-02-15T12:59:51;11.15;;;8.85;;
49237;SDS011;35069;47.906;1.892;2023-02-15T13:02:29;18.85;;;9.45;;
49237;SDS011;35069;47.906;1.892;2023-02-15T13:07:48;12.25;;;8.63;;
49237;SDS011;35069;47.906;1.892;2023-02-15T13:10:27;13.93;;;9.02;;
49237;SDS011;35069;47.906;1.892;2023-02-15T13:12:56;16.35;;;9.27;;
49237;SDS011;35069;47.906;1.892;2023-02-15T13:15:44;15.05;;;8.43;;
49237;SDS011;35069;47.906;1.892;2023-02-15T13:18:13;15.15;;;8.30;;
49237;SDS011;35069;47.906;1.892;2023-02-15T13:20:43;10.38;;;8.35;;
49237;SDS011;35069;47.906;1.892;2023-02-15T13:23:20;12.20;;;9.20;;
49237;SDS011;35069;47.906;1.892;2023-02-15T13:25:52;15.30;;;8.52;;
49237;SDS011;35069;47.906;1.892;2023-02-15T13:28:22;13.63;;;8.52;;
49237;SDS011;35069;47.906;1.892;2023-02-15T13:30:57;10.10;;;8.25;;
49237;SDS011;35069;47.906;1.892;2023-02-15T13:33:33;12.48;;;8.10;;
49237;SDS011;35069;47.906;1.892;2023-02-15T13:38:42;11.40;;;7.18;;
49237;SDS011;35069;47.906;1.892;2023-02-15T13:41:16;10.18;;;7.55;;
49237;SDS011;35069;47.906;1.892;2023-02-15T13:43:50;12.48;;;7.43;;
49237;SDS011;35069;47.906;1.892;2023-02-15T13:51:41;8.23;;;6.47;;
49237;SDS011;35069;47.906;1.892;2023-02-15T13:57:29;14.02;;;6.32;;
49237;SDS011;35069;47.906;1.892;2023-02-15T14:11:42;10.82;;;7.82;;
49237;SDS011;35069;47.906;1.892;2023-02-15T14:17:13;15.85;;;7.22;;
49237;SDS011;35069;47.906;1.892;2023-02-15T14:19:59;12.02;;;6.95;;
49237;SDS011;35069;47.906;1.892;2023-02-15T14:22:43;10.98;;;7.97;;
49237;SDS011;35069;47.906;1.892;2023-02-15T14:25:58;11.82;;;7.75;;
49237;SDS011;35069;47.906;1.892;2023-02-15T14:28:11;12.77;;;7.40;;
49237;SDS011;35069;47.906;1.892;2023-02-15T14:31:04;13.90;;;7.30;;
49237;SDS011;35069;47.906;1.892;2023-02-15T14:33:34;8.75;;;6.78;;
49237;SDS011;35069;47.906;1.892;2023-02-15T14:36:06;11.90;;;6.80;;
49237;SDS011;35069;47.906;1.892;2023-02-15T14:38:39;7.75;;;6.65;;
49237;SDS011;35069;47.906;1.892;2023-02-15T14:41:12;8.27;;;6.43;;
49237;SDS011;35069;47.906;1.892;2023-02-15T14:48:48;10.77;;;7.07;;
49237;SDS011;35069;47.906;1.892;2023-02-15T14:56:46;10.35;;;7.45;;
49237;SDS011;35069;47.906;1.892;2023-02-15T15:02:29;10.48;;;7.50;;
49237;SDS011;35069;47.906;1.892;2023-02-15T15:05:21;10.30;;;7.63;;
49237;SDS011;35069;47.906;1.892;2023-02-15T15:07:57;11.93;;;7.60;;
49237;SDS011;35069;47.906;1.892;2023-02-15T15:12:59;15.02;;;7.78;;
49237;SDS011;35069;47.906;1.892;2023-02-15T15:15:57;7.22;;;5.88;;
49237;SDS011;35069;47.906;1.892;2023-02-15T15:18:57;8.98;;;6.70;;
49237;SDS011;35069;47.906;1.892;2023-02-15T15:24:34;7.65;;;6.00;;
49237;SDS011;35069;47.906;1.892;2023-02-15T15:43:32;8.20;;;5.95;;
49237;SDS011;35069;47.906;1.892;2023-02-15T15:49:23;10.68;;;6.55;;
49237;SDS011;35069;47.906;1.892;2023-02-15T15:51:52;12.52;;;5.43;;
49237;SDS011;35069;47.906;1.892;2023-02-15T15:54:22;9.73;;;5.88;;
49237;SDS011;35069;47.906;1.892;2023-02-15T15:56:51;14.02;;;5.60;;
49237;SDS011;35069;47.906;1.892;2023-02-15T15:59:27;7.53;;;5.10;;
49237;SDS011;35069;47.906;1.892;2023-02-15T16:01:55;11.95;;;5.28;;
49237;SDS011;35069;47.906;1.892;2023-02-15T16:04:25;8.48;;;4.85;;
49237;SDS011;35069;47.906;1.892;2023-02-15T16:06:54;8.43;;;5.35;;
49237;SDS011;35069;47.906;1.892;2023-02-15T16:09:22;8.40;;;5.05;;
49237;SDS011;35069;47.906;1.892;2023-02-15T16:11:53;8.65;;;5.63;;
49237;SDS011;35069;47.906;1.892;2023-02-15T16:14:26;8.65;;;5.32;;
49237;SDS011;35069;47.906;1.892;2023-02-15T16:16:57;8.68;;;5.03;;
49237;SDS011;35069;47.906;1.892;2023-02-15T16:19:28;8.27;;;4.53;;
49237;SDS011;35069;47.906;1.892;2023-02-15T16:21:58;10.75;;;6.55;;
49237;SDS011;35069;47.906;1.892;2023-02-15T16:24:37;13.10;;;6.43;;
49237;SDS011;35069;47.906;1.892;2023-02-15T16:29:58;6.20;;;4.47;;
49237;SDS011;35069;47.906;1.892;2023-02-15T16:32:43;7.32;;;5.32;;
49237;SDS011;35069;47.906;1.892;2023-02-15T16:35:13;10.50;;;4.55;;
49237;SDS011;35069;47.906;1.892;2023-02-15T16:37:41;9.38;;;4.70;;
49237;SDS011;35069;47.906;1.892;2023-02-15T16:40:13;7.10;;;3.17;;
49237;SDS011;35069;47.906;1.892;2023-02-15T16:42:51;6.25;;;3.55;;
49237;SDS011;35069;47.906;1.892;2023-02-15T16:45:19;6.95;;;4.15;;
49237;SDS011;35069;47.906;1.892;2023-02-15T16:47:49;4.35;;;3.50;;
49237;SDS011;35069;47.906;1.892;2023-02-15T16:50:20;4.50;;;3.15;;
49237;SDS011;35069;47.906;1.892;2023-02-15T16:52:48;6.43;;;3.22;;
49237;SDS011;35069;47.906;1.892;2023-02-15T16:55:20;8.60;;;3.95;;
49237;SDS011;35069;47.906;1.892;2023-02-15T16:57:48;7.13;;;4.80;;
49237;SDS011;35069;47.906;1.892;2023-02-15T17:00:18;6.30;;;4.35;;
49237;SDS011;35069;47.906;1.892;2023-02-15T17:02:57;8.95;;;4.28;;
49237;SDS011;35069;47.906;1.892;2023-02-15T17:05:24;8.38;;;3.75;;
49237;SDS011;35069;47.906;1.892;2023-02-15T17:13:31;13.07;;;6.65;;
49237;SDS011;35069;47.906;1.892;2023-02-15T17:18:46;16.33;;;8.52;;
49237;SDS011;35069;47.906;1.892;2023-02-15T17:21:18;13.00;;;8.98;;
49237;SDS011;35069;47.906;1.892;2023-02-15T17:23:47;15.90;;;8.38;;
49237;SDS011;35069;47.906;1.892;2023-02-15T17:26:21;13.82;;;7.65;;
49237;SDS011;35069;47.906;1.892;2023-02-15T17:28:49;12.20;;;7.70;;
49237;SDS011;35069;47.906;1.892;2023-02-15T17:31:18;10.80;;;6.55;;
49237;SDS011;35069;47.906;1.892;2023-02-15T17:33:44;12.88;;;6.70;;
49237;SDS011;35069;47.906;1.892;2023-02-15T17:41:26;14.32;;;7.25;;
49237;SDS011;35069;47.906;1.892;2023-02-15T17:43:54;10.93;;;7.03;;
49237;SDS011;35069;47.906;1.892;2023-02-15T17:46:20;14.27;;;6.75;;
49237;SDS011;35069;47.906;1.892;2023-02-15T17:48:49;8.00;;;6.90;;
49237;SDS011;35069;47.906;1.892;2023-02-15T17:51:16;12.70;;;7.72;;
49237;SDS011;35069;47.906;1.892;2023-02-15T17:53:43;14.52;;;9.85;;
49237;SDS011;35069;47.906;1.892;2023-02-15T17:56:29;20.45;;;9.10;;
49237;SDS011;35069;47.906;1.892;2023-02-15T17:58:55;20.45;;;10.15;;
49237;SDS011;35069;47.906;1.892;2023-02-15T18:01:21;22.33;;;9.32;;
49237;SDS011;35069;47.906;1.892;2023-02-15T18:04:10;26.17;;;14.90;;
49237;SDS011;35069;47.906;1.892;2023-02-15T18:06:55;19.20;;;11.18;;
49237;SDS011;35069;47.906;1.892;2023-02-15T18:09:39;15.27;;;10.43;;
49237;SDS011;35069;47.906;1.892;2023-02-15T18:12:33;19.08;;;9.27;;
49237;SDS011;35069;47.906;1.892;2023-02-15T18:15:03;14.52;;;8.80;;